Raleigh, IL

3:50 PM CST on February 25, 2017 (GMT -0600)
Harrisburg-Raleigh

Weather History for KHSB - February, 2012

Change the Weather History Date:

Wednesday, February 15, 2012

  Actual Average (KMWA) Record (KMWA)
Temperature  
Mean Temperature 42 °F -  
Max Temperature 48 °F 45 °F 69 °F (2005)
Min Temperature 35 °F 25 °F -1 °F (1986)
Degree Days  
Heating Degree Days 24    
Moisture  
Dew Point 40 °F    
Average Humidity 94    
Maximum Humidity 100    
Minimum Humidity 87    
Precipitation  
Precipitation 0.07 in - - ()
Sea Level Pressure  
Sea Level Pressure 30.10 in    
Wind  
Wind Speed 5 mph (SE)    
Max Wind Speed 10 mph    
Max Gust Speed -    
Visibility 9 miles    
Events Rain    
Averages and records for this station are not official NWS values.
T = Trace of Precipitation, MM = Missing Value Source: NWS Daily Summary

Daily Weather History Graph

Daily Weather History Graph

Search for Another Location

Airport or City:

Trip Planner

Search our weather history database for the weather conditions in past years. The results will help you decide how hot, cold, wet, or windy it might be!

Date:

Astronomy

Feb. 15, 2012 Rise Set
Actual Time 6:44 AM CST 5:32 PM CST
Civil Twilight 6:17 AM CST 5:59 PM CST
Nautical Twilight 5:46 AM CST 6:30 PM CST
Astronomical Twilight 5:16 AM CST 7:00 PM CST
Moon 1:34 AM CST (2/15) 11:31 AM CST (2/15)
Length of Visible Light 11h 42m
Length of Day
10h 48m
Last Quarter, 38% of the Moon is Illuminated
Feb 15
Last Quarter
Feb 21
New
Feb 29
First Quarter
Mar 8
Full
Mar 14
Last Quarter

Hourly Weather History & Observations

Time (CST) Temp. Windchill Dew Point Humidity Pressure Visibility Wind Dir Wind Speed Gust Speed Precip Events Conditions
12:15 AM 35.6 °F 31.7 °F 33.8 °F 93% 30.10 in 10.0 mi SSE 4.6 mph - N/A   Mostly Cloudy
12:35 AM 35.6 °F 32.8 °F 33.8 °F 93% 30.10 in 10.0 mi ESE 3.5 mph - N/A   Mostly Cloudy
12:55 AM 35.6 °F 29.9 °F 33.8 °F 93% 30.09 in 10.0 mi SE 6.9 mph - N/A   Overcast
1:15 AM 35.6 °F 31.7 °F 33.8 °F 93% 30.10 in 10.0 mi SE 4.6 mph - N/A   Scattered Clouds
1:35 AM 35.6 °F 31.7 °F 33.8 °F 93% 30.10 in 10.0 mi ESE 4.6 mph - N/A   Mostly Cloudy
1:55 AM 35.6 °F 30.7 °F 33.8 °F 93% 30.10 in 10.0 mi SE 5.8 mph - N/A   Mostly Cloudy
2:15 AM 35.6 °F 29.9 °F 33.8 °F 93% 30.10 in 10.0 mi SE 6.9 mph - N/A   Scattered Clouds
2:35 AM 35.6 °F 29.9 °F 33.8 °F 93% 30.10 in 10.0 mi SE 6.9 mph - N/A   Clear
2:55 AM 35.6 °F 30.7 °F 33.8 °F 93% 30.11 in 7.0 mi SSE 5.8 mph - N/A   Clear
3:15 AM 35.6 °F 32.8 °F 33.8 °F 93% 30.13 in 10.0 mi South 3.5 mph - N/A   Clear
3:35 AM 35.6 °F 32.8 °F 35.6 °F 100% 30.13 in 10.0 mi SSE 3.5 mph - N/A   Mostly Cloudy
3:55 AM 35.6 °F 31.7 °F 35.6 °F 100% 30.13 in 10.0 mi SE 4.6 mph - N/A   Mostly Cloudy
4:15 AM 37.4 °F 32.8 °F 35.6 °F 93% 30.12 in 10.0 mi SE 5.8 mph - N/A   Mostly Cloudy
4:35 AM 37.4 °F 33.8 °F 35.6 °F 93% 30.13 in 10.0 mi SE 4.6 mph - N/A   Scattered Clouds
4:55 AM 37.4 °F 34.9 °F 35.6 °F 93% 30.14 in 10.0 mi SE 3.5 mph - N/A   Mostly Cloudy
5:15 AM 37.4 °F 34.9 °F 35.6 °F 93% 30.14 in 10.0 mi SE 3.5 mph - N/A   Overcast
5:35 AM 37.4 °F 31.4 °F 35.6 °F 93% 30.12 in 10.0 mi SE 8.1 mph - N/A Rain Light Rain
5:55 AM 37.4 °F 31.4 °F 35.6 °F 93% 30.12 in 10.0 mi SE 8.1 mph - N/A Rain Light Rain
6:15 AM 37.4 °F 32.1 °F 35.6 °F 93% 30.13 in 10.0 mi SSE 6.9 mph - 0.01 in Rain Light Rain
6:35 AM 37.4 °F 30.3 °F 37.4 °F 100% 30.11 in 10.0 mi SE 10.4 mph - 0.01 in Rain Light Rain
6:55 AM 37.4 °F 30.3 °F 37.4 °F 100% 30.10 in 10.0 mi SE 10.4 mph - 0.01 in   Unknown
7:15 AM 37.4 °F 30.3 °F 37.4 °F 100% 30.09 in 10.0 mi SE 10.4 mph - N/A   Scattered Clouds
7:35 AM 37.4 °F 32.1 °F 37.4 °F 100% 30.09 in 7.0 mi ESE 6.9 mph - N/A   Unknown
7:55 AM 39.2 °F 35.0 °F 37.4 °F 93% 30.10 in 7.0 mi SE 5.8 mph - N/A Rain Light Rain
8:15 AM 41.0 °F 39.0 °F 39.2 °F 93% 30.11 in 7.0 mi ESE 3.5 mph - N/A Rain Rain
8:35 AM 41.0 °F - 41.0 °F 100% 30.13 in 10.0 mi Calm Calm - N/A   Light Drizzle
8:55 AM 41.0 °F 39.0 °F 39.2 °F 93% 30.13 in 10.0 mi SSE 3.5 mph - N/A   Mostly Cloudy
9:15 AM 41.0 °F 39.0 °F 41.0 °F 100% 30.14 in 10.0 mi South 3.5 mph - N/A   Mostly Cloudy
9:35 AM 42.8 °F - 41.0 °F 93% 30.14 in 10.0 mi Calm Calm - N/A   Overcast
9:55 AM 42.8 °F - 41.0 °F 93% 30.15 in 10.0 mi Calm Calm - N/A   Mostly Cloudy
10:15 AM 44.6 °F 43.1 °F 42.8 °F 93% 30.14 in 10.0 mi South 3.5 mph - N/A   Mostly Cloudy
10:35 AM 44.6 °F 39.2 °F 42.8 °F 93% 30.16 in 10.0 mi SSW 10.4 mph - N/A   Overcast
10:55 AM 44.6 °F 42.2 °F 42.8 °F 93% 30.15 in 10.0 mi South 4.6 mph - N/A   Mostly Cloudy
11:15 AM 44.6 °F 41.4 °F 42.8 °F 93% 30.13 in 10.0 mi SSE 5.8 mph - N/A   Mostly Cloudy
11:35 AM 46.4 °F 43.5 °F 42.8 °F 87% 30.12 in 10.0 mi SSE 5.8 mph - N/A   Scattered Clouds
11:55 AM 46.4 °F 44.3 °F 42.8 °F 87% 30.13 in 10.0 mi SSW 4.6 mph - N/A   Scattered Clouds
12:15 PM 46.4 °F 43.5 °F 42.8 °F 87% 30.13 in 10.0 mi South 5.8 mph - N/A   Scattered Clouds
12:35 PM 46.4 °F 45.2 °F 42.8 °F 87% 30.12 in 10.0 mi SSW 3.5 mph - N/A   Scattered Clouds
12:55 PM 46.4 °F - 42.8 °F 87% 30.10 in 10.0 mi Calm Calm - N/A Rain Light Rain
1:15 PM 46.4 °F 45.2 °F 44.6 °F 93% 30.11 in 7.0 mi SW 3.5 mph - N/A Rain Rain
1:35 PM 46.4 °F - 44.6 °F 93% 30.09 in 7.0 mi Calm Calm - 0.01 in Rain Rain
1:55 PM 46.4 °F - 44.6 °F 93% 30.08 in 5.0 mi Calm Calm - 0.02 in Rain Light Rain
2:15 PM 46.4 °F - 46.4 °F 100% 30.07 in 5.0 mi Calm Calm - N/A Rain Light Rain
2:35 PM 46.4 °F 43.5 °F 46.4 °F 100% 30.06 in 5.0 mi East 5.8 mph - 0.01 in Rain Light Rain
2:55 PM 46.4 °F 41.9 °F 46.4 °F 100% 30.04 in 5.0 mi SE 9.2 mph - 0.01 in Rain Light Rain
3:15 PM 48.2 °F - 46.4 °F 93% 30.04 in 7.0 mi ESE 9.2 mph - 0.01 in Rain Light Rain
3:35 PM 48.2 °F - 46.4 °F 93% 30.04 in 7.0 mi SE 5.8 mph - 0.01 in   Overcast
3:55 PM 48.2 °F - 46.4 °F 93% 30.05 in 7.0 mi SSE 6.9 mph - 0.01 in   Overcast
4:15 PM 48.2 °F - 46.4 °F 93% 30.03 in 7.0 mi SE 8.1 mph - N/A   Light Drizzle
4:35 PM 48.2 °F - 46.4 °F 93% 30.02 in 10.0 mi SE 6.9 mph - N/A Rain Light Rain
4:55 PM 48.2 °F - 46.4 °F 93% 30.02 in 7.0 mi SE 5.8 mph - N/A Rain Light Rain
5:15 PM 46.4 °F 42.9 °F 46.4 °F 100% 30.01 in 7.0 mi ESE 6.9 mph - 0.01 in Rain Light Rain
5:35 PM 46.4 °F 42.4 °F 46.4 °F 100% 30.01 in 7.0 mi ESE 8.1 mph - 0.01 in Rain Rain
5:55 PM 46.4 °F 43.5 °F 46.4 °F 100% 30.02 in 10.0 mi SE 5.8 mph - 0.02 in   Light Drizzle
6:15 PM 46.4 °F 43.5 °F 46.4 °F 100% 30.01 in 7.0 mi ESE 5.8 mph - N/A   Light Drizzle
6:35 PM 46.4 °F 43.5 °F 46.4 °F 100% 29.99 in 7.0 mi East 5.8 mph - N/A Rain Rain
6:55 PM 46.4 °F 45.2 °F 46.4 °F 100% 30.04 in 3.0 mi NNW 3.5 mph - 0.04 in Rain Rain
7:15 PM 46.4 °F 45.2 °F 46.4 °F 100% 30.04 in 4.0 mi North 3.5 mph - 0.06 in Rain Light Rain
7:35 PM 46.4 °F 45.2 °F 46.4 °F 100% 30.03 in 4.0 mi NNE 3.5 mph - 0.07 in Rain Light Rain
7:55 PM 46.4 °F 45.2 °F 46.4 °F 100% 30.03 in 4.0 mi ENE 3.5 mph - 0.07 in Rain Light Rain
8:15 PM 46.4 °F 43.5 °F 46.4 °F 100% 30.01 in 3.0 mi ENE 5.8 mph - N/A Rain Rain
8:35 PM 44.6 °F 41.4 °F 44.6 °F 100% 30.01 in 4.0 mi East 5.8 mph - 0.03 in Rain Light Rain
8:55 PM 46.4 °F 41.1 °F 46.4 °F 100% 29.98 in 4.0 mi ESE 11.5 mph - 0.03 in Rain Light Rain
9:15 PM 46.4 °F 41.1 °F 46.4 °F 100% 29.99 in 3.0 mi ESE 11.5 mph - N/A   Scattered Clouds
9:35 PM 46.4 °F 42.9 °F 46.4 °F 100% 30.00 in 3.0 mi ESE 6.9 mph - N/A   Mostly Cloudy
9:55 PM 46.4 °F 44.3 °F 46.4 °F 100% 30.00 in 2.5 mi ESE 4.6 mph - 0.01 in Rain Rain
10:15 PM 46.4 °F 43.5 °F 46.4 °F 100% 30.01 in 2.5 mi SE 5.8 mph - 0.01 in Rain Rain
10:35 PM 46.4 °F 41.9 °F 46.4 °F 100% 29.99 in 3.0 mi ESE 9.2 mph - 0.02 in Rain Rain
10:55 PM 46.4 °F 43.5 °F 46.4 °F 100% 29.98 in 3.0 mi ESE 5.8 mph - 0.02 in   Drizzle
11:15 PM 46.4 °F 44.3 °F 46.4 °F 100% 29.99 in 3.0 mi East 4.6 mph - N/A   Overcast
11:35 PM 46.4 °F 45.2 °F 46.4 °F 100% 29.99 in 2.5 mi ESE 3.5 mph - N/A   Drizzle
11:55 PM 44.6 °F - 44.6 °F 100% 29.99 in 1.8 mi Calm Calm - 0.01 in Rain Rain